Trade Center, Virginia
Current Conditions -  °F | °C
As of 1:52 AM on Thursday 18 Dec 2014 (Local Time) from KDCA Reporting Station
Broken Clouds Broken Clouds  
Wind Chill: 35°   Ceiling: 5500
Heat Index: 40°   Visibility: 10mi
Dew Point: 21°   Wind: 7mph
Humidity: 47%   Direction: 280°W
Pressure: 30.1"   Gusts: NA
Location:  38.8134°N, 77.1153°W
Report Text: KDCA 180652Z 28006KT 10SM BKN055 04/M06 A3010 RMK AO2 SLP192 T00441061
Loading
Personal Weather Stations






























Interactive Weather Map New forecast layout! Learn more

10-Day Weather Forecast

Advertisements
Track Severe Weather on mobile